Time;durP1;ratioP1;P1;durP2;ratioP2;P2;SDS_P1;SDS_P2;PMS_P1;PMS_P2;Temp;Humidity;BMP_temperature;BMP_pressure;BME280_temperature;BME280_humidity;BME280_pressure;Samples;Min_cycle;Max_cycle;Signal;HPM_P1;HPM_P2
2022/07/20 00:01:13;;;;;;;6.35;3.58;;;;;;;15.96;87.75;97985.19;5056785;28;20533;-81
2022/07/20 00:03:40;;;;;;;5.38;3.88;;;;;;;15.85;88.60;97971.63;5056650;28;20381;-81
2022/07/20 00:06:06;;;;;;;6.65;3.95;;;;;;;15.89;88.75;97969.56;5056578;28;20028;-82
2022/07/20 00:11:21;;;;;;;5.22;3.60;;;;;;;15.87;87.57;97963.44;5074281;28;20062;-80
2022/07/20 00:13:59;;;;;;;4.80;3.80;;;;;;;15.70;88.30;97970.09;5065022;28;20112;-81
2022/07/20 00:16:26;;;;;;;5.47;3.60;;;;;;;15.66;89.19;97965.91;5052426;28;20025;-81
2022/07/20 00:18:51;;;;;;;6.75;3.60;;;;;;;15.66;90.00;97965.91;5070498;28;20464;-81
2022/07/20 00:21:18;;;;;;;5.15;3.33;;;;;;;15.70;90.56;97973.66;5073059;28;20017;-81
2022/07/20 00:23:43;;;;;;;7.53;3.95;;;;;;;15.73;91.57;97968.03;5072966;28;20040;-81
2022/07/20 00:26:09;;;;;;;5.40;3.78;;;;;;;15.66;91.06;97969.47;5056059;28;20027;-80
2022/07/20 00:28:35;;;;;;;6.80;3.88;;;;;;;15.60;89.81;97966.38;5073107;28;20028;-81
2022/07/20 00:31:00;;;;;;;5.18;3.28;;;;;;;15.55;89.33;97965.88;5055949;28;20222;-82
2022/07/20 00:33:26;;;;;;;4.80;3.50;;;;;;;15.53;89.89;97968.69;5072869;28;20025;-80
2022/07/20 00:35:51;;;;;;;5.30;3.42;;;;;;;15.47;90.33;97968.25;5054172;28;20025;-80
2022/07/20 00:38:17;;;;;;;4.70;3.47;;;;;;;15.42;90.43;97965.88;5043737;28;20024;-81
2022/07/20 00:40:43;;;;;;;7.70;3.70;;;;;;;15.39;90.86;97974.22;5061457;28;20032;-81
2022/07/20 00:43:08;;;;;;;5.85;3.60;;;;;;;15.38;91.89;97977.03;5072360;28;20027;-80
2022/07/20 00:45:34;;;;;;;6.80;3.45;;;;;;;15.43;91.50;97967.63;5072629;28;20095;-79
2022/07/20 00:48:01;;;;;;;5.30;3.33;;;;;;;15.45;91.31;97973.75;5057222;28;20028;-79
2022/07/20 00:50:27;;;;;;;6.38;3.50;;;;;;;15.40;91.47;97965.16;5073854;28;20127;-80
2022/07/20 00:52:52;;;;;;;7.47;3.70;;;;;;;15.43;91.78;97964.06;5055808;28;20029;-79
2022/07/20 00:55:18;;;;;;;6.47;3.30;;;;;;;15.37;92.57;97968.09;5072250;28;20024;-80
2022/07/20 00:57:44;;;;;;;5.55;3.63;;;;;;;15.29;93.85;97957.00;5055722;28;20025;-81
2022/07/20 01:00:10;;;;;;;6.82;3.53;;;;;;;15.27;93.45;97958.94;5054205;28;20520;-80
2022/07/20 01:02:36;;;;;;;6.95;3.70;;;;;;;15.31;93.53;97959.59;5057622;28;20082;-81
2022/07/20 01:05:01;;;;;;;4.88;3.50;;;;;;;15.41;93.01;97960.63;5037745;28;20091;-80
2022/07/20 01:07:27;;;;;;;6.55;3.85;;;;;;;15.30;93.57;97957.84;5042706;28;20029;-80
2022/07/20 01:09:53;;;;;;;5.13;3.63;;;;;;;15.27;95.29;97961.66;5053247;28;20108;-80
2022/07/20 01:12:18;;;;;;;7.78;3.88;;;;;;;15.26;96.27;97965.31;5055196;28;20405;-81
2022/07/20 01:14:44;;;;;;;9.23;4.63;;;;;;;15.30;96.03;97953.31;5052098;28;20070;-81
2022/07/20 01:17:10;;;;;;;5.57;3.75;;;;;;;15.28;96.14;97959.81;5054862;28;20484;-80
2022/07/20 01:19:36;;;;;;;8.02;4.38;;;;;;;15.24;96.44;97964.56;5072190;28;20020;-80
2022/07/20 01:22:02;;;;;;;10.75;4.38;;;;;;;15.12;97.34;97949.31;5072838;28;20465;-80
2022/07/20 01:24:28;;;;;;;7.55;4.30;;;;;;;15.05;98.13;97959.66;5050173;28;20060;-80
2022/07/20 01:26:54;;;;;;;8.93;4.07;;;;;;;15.00;98.32;97966.38;5062317;28;20024;-80
2022/07/20 01:29:19;;;;;;;7.43;4.63;;;;;;;14.99;97.77;97964.63;5070162;28;20028;-80
2022/07/20 01:31:45;;;;;;;9.23;4.20;;;;;;;14.91;98.77;97961.66;5071614;28;20025;-80
2022/07/20 01:34:11;;;;;;;9.27;4.00;;;;;;;14.95;98.77;97969.38;5054783;28;20461;-81
2022/07/20 01:36:36;;;;;;;6.47;4.03;;;;;;;14.86;98.84;97953.06;5071817;28;20031;-81
2022/07/20 01:39:02;;;;;;;7.97;4.25;;;;;;;14.90;99.60;97965.31;5052731;28;20495;-80
2022/07/20 01:41:28;;;;;;;4.75;3.63;;;;;;;14.79;100.00;97957.16;5071556;28;20495;-81
2022/07/20 01:43:54;;;;;;;10.02;3.70;;;;;;;14.68;100.00;97970.50;5054599;28;20028;-82
2022/07/20 01:46:19;;;;;;;7.10;3.67;;;;;;;14.58;100.00;97971.19;5071634;28;20542;-80
2022/07/20 01:48:45;;;;;;;8.32;4.03;;;;;;;14.55;100.00;97963.31;5056099;28;20495;-80
2022/07/20 01:51:10;;;;;;;6.57;3.80;;;;;;;14.60;100.00;97966.56;5067936;28;20116;-79
2022/07/20 01:53:36;;;;;;;5.70;4.10;;;;;;;14.60;100.00;97963.00;5054762;28;20025;-81
2022/07/20 01:56:02;;;;;;;10.25;4.22;;;;;;;14.43;100.00;97955.25;5071347;28;20103;-81
2022/07/20 01:58:27;;;;;;;7.35;4.30;;;;;;;14.54;100.00;97953.53;5054375;28;20031;-81
2022/07/20 02:00:53;;;;;;;8.32;4.20;;;;;;;14.58;100.00;97968.47;5070820;28;20037;-81
2022/07/20 02:03:19;;;;;;;8.90;4.15;;;;;;;14.37;100.00;97953.00;5070771;28;20029;-82
2022/07/20 02:05:44;;;;;;;7.80;3.97;;;;;;;14.38;100.00;97958.28;5054292;28;20060;-82
2022/07/20 02:08:10;;;;;;;6.30;3.78;;;;;;;14.40;100.00;97960.84;5062564;28;20032;-81
2022/07/20 02:10:36;;;;;;;4.80;3.50;;;;;;;14.38;100.00;97963.66;5071201;28;20027;-79
2022/07/20 02:13:01;;;;;;;5.25;3.55;;;;;;;14.44;100.00;97968.63;5053825;28;20074;-80
2022/07/20 02:18:12;;;;;;;5.72;3.78;;;;;;;14.35;100.00;97969.25;5054292;28;20564;-81
2022/07/20 02:20:39;;;;;;;6.97;4.28;;;;;;;14.35;100.00;97980.03;5054167;28;20424;-80
2022/07/20 02:23:06;;;;;;;6.65;3.85;;;;;;;14.38;100.00;97978.94;5051162;28;20037;-81
2022/07/20 02:25:32;;;;;;;12.68;5.13;;;;;;;14.31;100.00;97967.72;5070426;28;20119;-81
2022/07/20 02:27:58;;;;;;;10.48;4.60;;;;;;;14.22;100.00;97962.97;5054062;28;20111;-80
2022/07/20 02:30:23;;;;;;;5.60;4.30;;;;;;;14.22;100.00;97968.34;5070272;28;20020;-80
2022/07/20 02:32:49;;;;;;;6.75;4.10;;;;;;;14.09;100.00;97973.72;5070364;28;20031;-81
2022/07/20 02:35:15;;;;;;;7.03;4.32;;;;;;;14.08;100.00;97976.53;5071412;28;20036;-80
2022/07/20 02:37:41;;;;;;;8.73;4.07;;;;;;;14.02;100.00;97968.91;5050201;28;20037;-82
2022/07/20 02:40:07;;;;;;;10.55;4.40;;;;;;;13.98;100.00;97959.31;5066913;28;20025;-81
2022/07/20 02:42:33;;;;;;;7.22;4.07;;;;;;;13.99;100.00;97971.81;5053632;28;20020;-81
2022/07/20 02:44:58;;;;;;;13.90;4.07;;;;;;;13.94;100.00;97968.53;5070325;28;20154;-81
2022/07/20 02:47:24;;;;;;;7.63;4.28;;;;;;;13.92;100.00;97959.72;5053284;28;20039;-81
2022/07/20 02:49:49;;;;;;;8.45;4.47;;;;;;;13.94;100.00;97972.09;5070216;28;20032;-81
2022/07/20 02:52:15;;;;;;;7.30;4.10;;;;;;;13.84;100.00;97962.09;5070109;28;20074;-81
2022/07/20 02:54:40;;;;;;;11.30;4.30;;;;;;;13.89;100.00;97976.06;5069923;28;20526;-81
2022/07/20 02:57:06;;;;;;;5.88;4.35;;;;;;;13.78;100.00;97962.50;5051081;28;20128;-80
2022/07/20 02:59:31;;;;;;;9.18;4.68;;;;;;;13.77;100.00;97974.22;5051463;28;20069;-80
2022/07/20 03:01:57;;;;;;;8.85;4.60;;;;;;;13.81;100.00;97973.06;5053384;28;20078;-80
2022/07/20 03:04:23;;;;;;;8.82;4.38;;;;;;;13.86;100.00;97984.34;5069639;28;20038;-81
2022/07/20 03:06:48;;;;;;;11.38;4.53;;;;;;;14.02;100.00;97983.22;5070071;28;20107;-81
2022/07/20 03:09:14;;;;;;;10.80;5.45;;;;;;;13.96;100.00;97986.31;5053155;28;20031;-80
2022/07/20 03:11:40;;;;;;;12.15;6.72;;;;;;;13.97;100.00;97985.34;5069617;28;20051;-81
2022/07/20 03:14:05;;;;;;;8.43;5.80;;;;;;;13.96;100.00;97980.09;5061621;28;20029;-82
2022/07/20 03:16:31;;;;;;;9.48;4.90;;;;;;;13.94;100.00;97990.06;5053046;28;20475;-80
2022/07/20 03:18:56;;;;;;;12.05;5.18;;;;;;;13.97;100.00;97992.53;5053290;28;20078;-79
2022/07/20 03:21:22;;;;;;;6.40;4.57;;;;;;;13.95;100.00;97986.41;5053237;28;20024;-80
2022/07/20 03:23:48;;;;;;;7.18;3.88;;;;;;;13.93;100.00;97993.75;5068863;28;20025;-81
2022/07/20 03:26:13;;;;;;;6.40;4.13;;;;;;;13.88;100.00;97996.72;5053114;28;20055;-80
2022/07/20 03:28:39;;;;;;;6.43;3.92;;;;;;;13.84;100.00;97999.75;5053248;28;20478;-81
2022/07/20 03:31:05;;;;;;;5.47;3.92;;;;;;;13.83;100.00;98008.75;5052907;28;20028;-83
2022/07/20 03:33:30;;;;;;;8.18;4.28;;;;;;;13.87;100.00;98005.75;5052759;28;20039;-81
2022/07/20 03:35:56;;;;;;;10.55;4.75;;;;;;;13.94;100.00;98015.13;5049523;28;20147;-82
2022/07/20 03:38:21;;;;;;;10.38;5.22;;;;;;;13.97;100.00;98014.94;5068137;28;20085;-80
2022/07/20 03:40:47;;;;;;;9.88;6.22;;;;;;;14.03;100.00;98009.13;5052925;28;20096;-81
2022/07/20 03:43:12;;;;;;;10.98;6.05;;;;;;;14.19;100.00;98019.69;5050055;28;20535;-80
2022/07/20 03:45:38;;;;;;;11.55;4.43;;;;;;;14.16;100.00;98014.53;5069255;28;20492;-81
2022/07/20 03:48:04;;;;;;;7.88;4.47;;;;;;;14.11;100.00;98014.00;5069616;28;20488;-81
2022/07/20 03:50:30;;;;;;;8.60;5.07;;;;;;;14.22;100.00;98022.19;5069645;28;20455;-80
2022/07/20 03:52:56;;;;;;;13.80;5.70;;;;;;;14.35;100.00;98023.09;5070630;28;20033;-81
2022/07/20 03:55:21;;;;;;;13.48;5.22;;;;;;;14.40;100.00;98020.06;5052882;28;20027;-81
2022/07/20 03:57:47;;;;;;;13.23;5.70;;;;;;;14.53;100.00;98021.81;5069647;28;20028;-80
2022/07/20 04:00:13;;;;;;;12.25;5.95;;;;;;;14.69;100.00;98021.59;5040178;28;20140;-82
2022/07/20 04:02:39;;;;;;;21.60;6.22;;;;;;;14.81;100.00;98028.78;5061702;28;20111;-81
2022/07/20 04:05:05;;;;;;;13.38;6.03;;;;;;;14.86;100.00;98023.94;5064909;28;20166;-82
2022/07/20 04:07:30;;;;;;;17.10;6.25;;;;;;;14.90;100.00;98027.28;5051736;28;20106;-81
2022/07/20 04:09:56;;;;;;;14.98;6.50;;;;;;;14.90;100.00;98024.56;5070213;28;20032;-81
2022/07/20 04:12:23;;;;;;;16.40;6.03;;;;;;;15.00;100.00;98029.22;5069333;28;20499;-81
2022/07/20 04:14:50;;;;;;;16.13;5.82;;;;;;;15.08;100.00;98028.63;5062266;28;20036;-81
2022/07/20 04:17:17;;;;;;;15.43;6.70;;;;;;;15.04;100.00;98027.16;5052530;28;20372;-81
2022/07/20 04:19:43;;;;;;;32.05;6.78;;;;;;;15.18;100.00;98029.69;5061373;28;20142;-79
2022/07/20 04:22:09;;;;;;;19.42;6.85;;;;;;;15.28;100.00;98030.75;5052268;28;20024;-80
2022/07/20 04:24:35;;;;;;;20.40;5.90;;;;;;;15.36;99.68;98033.75;5051582;28;20127;-81
2022/07/20 04:27:00;;;;;;;18.65;5.95;;;;;;;15.44;99.22;98031.34;5069148;28;20031;-81
2022/07/20 04:29:27;;;;;;;20.40;6.50;;;;;;;15.51;98.35;98021.84;5052521;28;20028;-82
2022/07/20 04:31:53;;;;;;;23.95;6.95;;;;;;;15.53;98.13;98024.47;5069049;28;20021;-81
2022/07/20 04:34:18;;;;;;;22.88;6.13;;;;;;;15.57;98.03;98020.53;5052614;28;20132;-82
2022/07/20 04:36:44;;;;;;;31.42;6.75;;;;;;;15.80;96.98;98033.19;5052949;28;20033;-83
2022/07/20 04:39:10;;;;;;;16.63;6.07;;;;;;;15.92;95.47;98026.00;5055197;28;20036;-81
2022/07/20 04:41:36;;;;;;;17.27;6.10;;;;;;;16.28;93.38;98031.28;5056355;28;20450;-83
2022/07/20 04:44:01;;;;;;;16.88;7.15;;;;;;;17.63;85.55;98029.41;5048108;28;20028;-82
2022/07/20 04:46:28;;;;;;;22.23;6.05;;;;;;;17.85;81.88;98029.34;5064505;28;20513;-82
2022/07/20 04:48:54;;;;;;;13.50;7.20;;;;;;;17.62;82.62;98037.66;5072494;28;20033;-82
2022/07/20 04:51:20;;;;;;;21.77;11.57;;;;;;;17.34;82.95;98045.28;5072963;28;20032;-82
2022/07/20 04:53:46;;;;;;;35.90;19.42;;;;;;;17.22;85.48;98043.59;5055701;28;20036;-79
2022/07/20 04:56:12;;;;;;;37.55;23.48;;;;;;;17.10;85.69;98049.13;5054765;28;20480;-82
2022/07/20 04:58:38;;;;;;;41.80;25.50;;;;;;;17.09;86.20;98050.97;5072958;28;20040;-81
2022/07/20 05:01:03;;;;;;;44.22;25.95;;;;;;;17.14;85.64;98042.47;5055729;28;20059;-81
2022/07/20 05:03:29;;;;;;;37.38;23.33;;;;;;;17.33;85.45;98046.28;5069315;28;20029;-84
2022/07/20 05:05:54;;;;;;;32.03;20.92;;;;;;;19.03;77.95;98036.34;5073338;28;20086;-83
2022/07/20 05:08:20;;;;;;;31.38;19.13;;;;;;;20.99;68.43;98023.41;5055988;28;20042;-80
2022/07/20 05:10:46;;;;;;;24.52;16.27;;;;;;;22.23;62.84;98026.50;5072899;28;20033;-82
2022/07/20 05:13:11;;;;;;;29.60;13.80;;;;;;;22.14;61.47;98031.03;5051675;28;20040;-83
2022/07/20 05:15:37;;;;;;;23.35;13.38;;;;;;;22.12;61.07;98018.53;5056203;28;20024;-82
2022/07/20 05:18:02;;;;;;;29.92;12.02;;;;;;;21.17;62.61;98030.81;5055701;28;20031;-81
2022/07/20 05:20:28;;;;;;;23.27;11.50;;;;;;;21.03;63.30;98038.44;5072301;28;20122;-82
2022/07/20 05:22:54;;;;;;;29.27;12.18;;;;;;;20.94;64.35;98046.63;5055837;28;20028;-83
2022/07/20 05:25:19;;;;;;;22.30;10.30;;;;;;;21.62;62.38;98037.22;5072013;28;20032;-82
2022/07/20 05:27:45;;;;;;;31.60;13.40;;;;;;;23.21;57.77;98018.94;5055732;28;20484;-82
2022/07/20 05:30:10;;;;;;;24.55;12.02;;;;;;;24.71;53.47;98012.50;5072104;28;20039;-81
2022/07/20 05:32:36;;;;;;;32.15;13.45;;;;;;;25.66;50.55;98017.13;5071986;28;20036;-82
2022/07/20 05:35:02;;;;;;;37.60;12.57;;;;;;;26.81;47.46;98017.97;5067935;28;20032;-82
2022/07/20 05:37:28;;;;;;;16.10;10.38;;;;;;;27.36;45.78;98017.56;5050771;28;20021;-82
2022/07/20 05:39:53;;;;;;;18.65;12.57;;;;;;;28.74;42.57;98007.44;5054674;28;20575;-81
2022/07/20 05:42:19;;;;;;;13.77;9.38;;;;;;;27.66;43.81;98017.59;5059309;28;20028;-83
2022/07/20 05:44:45;;;;;;;13.45;8.10;;;;;;;27.62;43.89;98013.53;5071749;28;20062;-83
2022/07/20 05:47:10;;;;;;;21.88;8.13;;;;;;;27.67;43.04;98011.06;5071734;28;20037;-82
2022/07/20 05:49:36;;;;;;;16.60;8.52;;;;;;;28.39;41.51;98012.81;5055095;28;20074;-81
2022/07/20 05:52:03;;;;;;;12.60;8.25;;;;;;;29.00;39.77;98005.81;5071420;28;20131;-83
2022/07/20 05:54:28;;;;;;;10.30;7.63;;;;;;;29.25;39.87;98003.47;5071580;28;20415;-83
2022/07/20 05:56:54;;;;;;;15.07;8.15;;;;;;;29.22;39.56;97992.81;5055004;28;20051;-83
2022/07/20 05:59:20;;;;;;;13.02;7.50;;;;;;;28.75;40.40;98006.41;5054710;28;20051;-82
2022/07/20 06:01:45;;;;;;;12.55;6.78;;;;;;;29.03;40.00;97999.03;5071376;28;20023;-82
2022/07/20 06:04:11;;;;;;;9.63;5.43;;;;;;;30.24;37.08;97984.66;5072720;28;20365;-84
2022/07/20 06:06:37;;;;;;;9.77;5.72;;;;;;;31.34;35.79;97988.59;5046170;28;20025;-83
2022/07/20 06:09:04;;;;;;;12.80;6.30;;;;;;;31.95;34.49;97966.09;5071395;28;20009;-83
2022/07/20 06:11:29;;;;;;;10.68;5.38;;;;;;;31.63;34.35;97971.53;5054590;28;20484;-84
2022/07/20 06:13:55;;;;;;;12.85;5.90;;;;;;;30.96;35.29;97987.56;5071511;28;20021;-83
2022/07/20 06:16:20;;;;;;;12.93;6.40;;;;;;;32.27;33.77;97976.16;5055009;28;20540;-84
2022/07/20 06:18:46;;;;;;;11.57;6.00;;;;;;;33.02;32.57;97968.81;5062424;28;20021;-83
2022/07/20 06:21:13;;;;;;;13.82;6.32;;;;;;;32.23;33.00;97966.63;5071002;28;20397;-83
2022/07/20 06:23:39;;;;;;;14.40;5.68;;;;;;;32.13;33.26;97980.09;5054605;28;20039;-83
2022/07/20 06:26:05;;;;;;;7.50;5.68;;;;;;;32.31;32.77;97976.56;5071039;28;20100;-79
2022/07/20 06:28:31;;;;;;;16.33;5.95;;;;;;;33.46;31.56;97970.56;5071120;28;20028;-81
2022/07/20 06:30:56;;;;;;;11.20;5.57;;;;;;;34.18;30.63;97970.59;5054040;28;20024;-82
2022/07/20 06:33:22;;;;;;;11.82;5.63;;;;;;;34.68;30.26;97965.59;5070814;28;20117;-82
2022/07/20 06:35:47;;;;;;;11.30;5.40;;;;;;;34.07;30.75;97962.16;5053857;28;20569;-82
2022/07/20 06:38:13;;;;;;;22.83;5.50;;;;;;;35.28;29.35;97971.06;5050977;28;20158;-84
2022/07/20 06:40:39;;;;;;;8.15;4.53;;;;;;;34.65;28.90;97954.97;5062039;28;20034;-83
2022/07/20 06:43:04;;;;;;;10.75;5.47;;;;;;;33.49;30.08;97954.31;5055941;28;20025;-83
2022/07/20 06:45:30;;;;;;;20.65;6.03;;;;;;;33.95;30.46;97964.91;5077266;28;20483;-83
2022/07/20 06:47:55;;;;;;;21.50;6.05;;;;;;;35.00;28.93;97951.41;5070699;28;20020;-84
2022/07/20 06:50:21;;;;;;;12.45;5.65;;;;;;;34.89;28.60;97946.69;5053704;28;20024;-83
2022/07/20 06:52:46;;;;;;;9.05;5.20;;;;;;;34.24;29.38;97943.81;5070631;28;20025;-83
2022/07/20 06:55:12;;;;;;;13.82;5.30;;;;;;;34.55;29.34;97949.09;5053794;28;20056;-83
2022/07/20 06:57:38;;;;;;;7.30;4.70;;;;;;;35.08;28.27;97948.25;5070014;28;20029;-83
2022/07/20 07:00:05;;;;;;;8.23;4.63;;;;;;;35.03;27.39;97949.00;5052647;28;20123;-83
2022/07/20 07:02:31;;;;;;;6.15;3.50;;;;;;;34.46;28.02;97944.09;5070367;28;20115;-81
2022/07/20 07:04:57;;;;;;;7.47;4.15;;;;;;;33.47;29.75;97950.06;5070013;28;20464;-83
2022/07/20 07:07:22;;;;;;;11.55;4.18;;;;;;;33.82;29.73;97953.94;5070598;28;20104;-83
2022/07/20 07:09:48;;;;;;;6.78;4.60;;;;;;;33.17;30.25;97955.50;5053444;28;20404;-84
2022/07/20 07:12:13;;;;;;;7.38;3.20;;;;;;;33.08;29.89;97957.72;5070183;28;20026;-83
2022/07/20 07:14:39;;;;;;;7.10;3.78;;;;;;;34.09;28.85;97943.31;5070256;28;20111;-83
2022/07/20 07:17:05;;;;;;;14.77;4.45;;;;;;;35.59;27.70;97956.78;5070192;28;20028;-83
2022/07/20 07:19:30;;;;;;;10.43;3.83;;;;;;;36.31;27.21;97946.06;5070509;28;20145;-84
2022/07/20 07:21:56;;;;;;;10.48;3.92;;;;;;;35.90;27.49;97941.59;5061784;28;20024;-84
2022/07/20 07:24:22;;;;;;;9.32;4.03;;;;;;;37.47;25.76;97939.78;5050172;28;20049;-84
2022/07/20 07:26:48;;;;;;;5.07;3.50;;;;;;;37.78;24.44;97925.13;5069235;28;20036;-83
2022/07/20 07:29:14;;;;;;;11.95;3.92;;;;;;;38.92;23.78;97927.84;5053323;28;20434;-83
2022/07/20 07:31:40;;;;;;;8.48;3.40;;;;;;;39.10;23.56;97929.41;5071241;28;20036;-83
2022/07/20 07:34:06;;;;;;;8.07;3.80;;;;;;;38.98;24.05;97924.81;5052818;28;20054;-83
2022/07/20 07:36:31;;;;;;;11.20;3.95;;;;;;;38.28;24.64;97924.94;5053546;28;20036;-84
2022/07/20 07:38:57;;;;;;;5.57;3.20;;;;;;;38.19;24.59;97928.44;5070218;28;20420;-83
2022/07/20 07:41:23;;;;;;;9.15;4.00;;;;;;;38.03;24.63;97923.78;5053414;28;20104;-84
2022/07/20 07:43:48;;;;;;;9.30;3.70;;;;;;;38.85;23.54;97924.44;5070077;28;20484;-84
2022/07/20 07:46:14;;;;;;;6.97;3.90;;;;;;;39.01;23.95;97921.50;5070454;28;20040;-83
2022/07/20 07:48:39;;;;;;;14.98;3.67;;;;;;;39.08;23.76;97917.63;5053453;28;20028;-83
2022/07/20 07:51:06;;;;;;;4.55;2.97;;;;;;;36.65;24.76;97919.97;5051892;28;20037;-84
2022/07/20 07:53:31;;;;;;;7.97;3.13;;;;;;;37.21;24.62;97920.91;5070294;28;20377;-84
2022/07/20 07:55:57;;;;;;;7.97;3.10;;;;;;;38.76;24.04;97923.22;5053445;28;20031;-84
2022/07/20 07:58:22;;;;;;;4.72;3.35;;;;;;;38.67;24.41;97919.22;5071430;28;20395;-84
2022/07/20 08:00:49;;;;;;;7.68;3.42;;;;;;;39.74;23.81;97924.56;5070094;28;20431;-84
2022/07/20 08:03:14;;;;;;;8.52;3.55;;;;;;;40.31;22.70;97913.31;5052406;28;20055;-83
2022/07/20 08:05:40;;;;;;;12.98;4.13;;;;;;;39.82;23.34;97922.06;5064141;28;20487;-84
2022/07/20 08:08:07;;;;;;;12.25;3.60;;;;;;;38.86;23.30;97901.78;5051376;28;20412;-85
2022/07/20 08:10:33;;;;;;;13.75;3.03;;;;;;;37.97;24.00;97904.16;5056006;28;20025;-84
2022/07/20 08:12:59;;;;;;;10.35;3.40;;;;;;;39.45;23.20;97912.88;5057300;28;20036;-85
2022/07/20 08:15:24;;;;;;;6.60;2.75;;;;;;;39.67;22.64;97902.38;5074202;28;20127;-85
2022/07/20 08:17:50;;;;;;;5.43;3.17;;;;;;;40.50;21.52;97895.69;5058079;28;20031;-84
2022/07/20 08:20:21;;;;;;;5.22;3.00;;;;;;;39.77;22.28;97896.00;5057578;28;20033;-85
2022/07/20 08:22:47;;;;;;;4.32;3.00;;;;;;;40.35;20.76;97886.41;5054674;28;20052;-85
2022/07/20 08:25:13;;;;;;;8.50;2.60;;;;;;;38.01;22.64;97882.13;5058630;28;20509;-84
2022/07/20 08:27:38;;;;;;;3.03;2.30;;;;;;;39.47;21.71;97883.47;5073819;28;20037;-84
2022/07/20 08:30:04;;;;;;;5.35;2.22;;;;;;;41.06;20.53;97885.38;5056865;28;20044;-84
2022/07/20 08:32:31;;;;;;;5.53;2.42;;;;;;;40.11;21.22;97882.41;5057907;28;20032;-84
2022/07/20 08:34:57;;;;;;;4.78;2.40;;;;;;;40.55;20.92;97886.44;5057164;28;20032;-84
2022/07/20 08:37:22;;;;;;;5.53;2.30;;;;;;;40.64;20.49;97881.97;5062414;28;20032;-85
2022/07/20 08:39:48;;;;;;;12.20;2.55;;;;;;;41.28;19.96;97873.00;5073867;28;20024;-84
2022/07/20 08:42:14;;;;;;;4.28;2.50;;;;;;;41.28;19.97;97879.47;5073053;28;20458;-85
2022/07/20 08:44:41;;;;;;;3.40;2.33;;;;;;;41.94;18.85;97865.22;5068251;28;20032;-84
2022/07/20 08:47:08;;;;;;;5.25;2.42;;;;;;;41.81;18.61;97863.88;5056618;28;20036;-84
2022/07/20 08:49:33;;;;;;;4.40;2.25;;;;;;;42.22;18.42;97860.88;5073521;28;20454;-85
2022/07/20 08:51:59;;;;;;;4.90;2.28;;;;;;;43.50;17.64;97866.88;5056809;28;20089;-86
2022/07/20 08:54:25;;;;;;;25.80;2.63;;;;;;;42.32;19.00;97866.44;5059852;28;20032;-85
2022/07/20 08:56:51;;;;;;;7.80;2.35;;;;;;;41.80;19.64;97862.22;5073812;28;20026;-85
2022/07/20 08:59:16;;;;;;;4.18;2.85;;;;;;;41.53;19.64;97859.72;5056899;28;20468;-84
2022/07/20 09:02:03;;;;;;;4.25;2.60;;;;;;;41.35;20.20;97867.97;5056950;28;20499;-85
2022/07/20 09:04:29;;;;;;;9.43;2.47;;;;;;;41.39;20.82;97863.44;5061982;28;20039;-86
2022/07/20 09:06:55;;;;;;;7.10;2.67;;;;;;;41.41;20.53;97869.63;5056663;28;20028;-86
2022/07/20 09:09:21;;;;;;;3.20;2.20;;;;;;;40.85;19.89;97854.75;5056721;28;20029;-85
2022/07/20 09:11:48;;;;;;;5.93;2.22;;;;;;;41.56;19.73;97847.09;5056294;28;20056;-86
2022/07/20 09:14:13;;;;;;;32.67;3.60;;;;;;;41.70;19.48;97841.69;5055827;28;20044;-86
2022/07/20 09:16:46;;;;;;;8.73;2.22;;;;;;;42.45;19.00;97843.28;5048239;28;20028;-86
2022/07/20 09:19:15;;;;;;;5.82;2.17;;;;;;;42.95;18.66;97842.03;5072444;28;20491;-79
2022/07/20 09:21:42;;;;;;;9.32;2.20;;;;;;;42.46;19.02;97842.13;5072321;28;20621;-80
2022/07/20 09:24:09;;;;;;;4.68;2.70;;;;;;;42.18;19.83;97837.28;5055438;28;20393;-79
2022/07/20 09:26:35;;;;;;;6.07;2.40;;;;;;;42.27;18.87;97836.34;5088536;28;20094;-79
2022/07/20 09:29:03;;;;;;;3.17;2.20;;;;;;;43.28;18.00;97829.06;5054812;28;20028;-79
2022/07/20 09:31:37;;;;;;;6.03;2.15;;;;;;;41.97;18.61;97828.94;5051671;28;20104;-80
2022/07/20 09:34:12;;;;;;;6.07;2.40;;;;;;;41.15;20.10;97832.28;5055684;28;20558;-80
2022/07/20 09:36:41;;;;;;;4.07;2.30;;;;;;;39.47;21.07;97823.81;5055198;28;20058;-79
2022/07/20 09:39:12;;;;;;;3.53;2.30;;;;;;;41.03;20.26;97828.94;5054672;28;20113;-79
2022/07/20 09:41:41;;;;;;;3.67;1.85;;;;;;;41.15;19.29;97828.63;5064617;28;20024;-79
2022/07/20 09:44:10;;;;;;;4.72;2.00;;;;;;;41.22;19.53;97817.94;5060551;28;20460;-80
2022/07/20 09:46:38;;;;;;;3.55;2.67;;;;;;;42.11;18.71;97815.91;5035162;28;20020;-79
2022/07/20 09:49:06;;;;;;;11.77;2.30;;;;;;;41.93;18.92;97822.19;5050912;28;20115;-79
2022/07/20 09:51:35;;;;;;;5.88;2.20;;;;;;;42.74;18.36;97829.28;5062944;28;20024;-79
2022/07/20 09:54:08;;;;;;;4.10;2.50;;;;;;;42.93;18.34;97817.00;5071480;28;20523;-79
2022/07/20 09:56:39;;;;;;;3.70;2.35;;;;;;;42.54;19.02;97811.41;5072752;28;20544;-80
2022/07/20 09:59:07;;;;;;;4.70;2.53;;;;;;;42.34;18.97;97816.34;5059071;28;20090;-79
2022/07/20 10:01:35;;;;;;;4.70;3.55;;;;;;;43.32;18.44;97811.25;5054610;28;20028;-80
2022/07/20 10:04:04;;;;;;;6.22;2.53;;;;;;;43.90;17.87;97809.16;5042099;28;20498;-79
2022/07/20 10:06:29;;;;;;;4.32;2.95;;;;;;;43.95;17.37;97795.00;5072371;28;20058;-80
2022/07/20 10:08:56;;;;;;;7.47;2.78;;;;;;;44.13;17.63;97798.97;5058735;28;20029;-79
2022/07/20 10:11:23;;;;;;;5.50;2.30;;;;;;;43.45;18.10;97790.84;5066771;28;20128;-79
2022/07/20 10:13:51;;;;;;;6.82;3.22;;;;;;;44.11;17.50;97790.81;5054062;28;20040;-79
2022/07/20 10:16:39;;;;;;;2.90;2.00;;;;;;;44.54;16.52;97785.97;5071061;28;20032;-80
2022/07/20 10:19:06;;;;;;;3.50;2.10;;;;;;;45.60;15.89;97777.47;5066453;28;20062;-80
2022/07/20 10:21:34;;;;;;;2.60;1.90;;;;;;;45.10;16.35;97776.50;5053298;28;20108;-80
2022/07/20 10:24:34;;;;;;;12.00;2.40;;;;;;;43.70;17.60;97775.56;5053966;28;20033;-81
2022/07/20 10:27:02;;;;;;;4.95;2.70;;;;;;;43.45;17.76;97773.91;5053672;28;20468;-80
2022/07/20 10:29:40;;;;;;;5.32;2.55;;;;;;;42.76;18.39;97768.75;5052144;28;20056;-80
2022/07/20 10:32:08;;;;;;;4.47;2.08;;;;;;;41.93;19.08;97768.75;5053554;28;20515;-80
2022/07/20 10:34:41;;;;;;;6.40;2.22;;;;;;;41.87;18.97;97764.28;5071729;28;20059;-80
2022/07/20 10:37:23;;;;;;;7.30;2.53;;;;;;;43.18;18.13;97759.56;5053774;28;20123;-79
2022/07/20 10:39:49;;;;;;;17.13;2.20;;;;;;;42.71;18.34;97751.88;5071775;28;20032;-79
2022/07/20 10:42:21;;;;;;;3.78;2.10;;;;;;;42.40;18.63;97753.25;5059017;28;20118;-80
2022/07/20 10:44:47;;;;;;;7.28;2.50;;;;;;;41.30;19.53;97747.13;5059548;28;20032;-79
2022/07/20 10:47:45;;;;;;;5.25;2.25;;;;;;;42.29;19.20;97760.97;5070377;28;20029;-79
2022/07/20 10:50:17;;;;;;;4.75;1.92;;;;;;;42.01;18.66;97754.09;5069703;28;20028;-79
2022/07/20 10:52:45;;;;;;;7.72;2.08;;;;;;;42.32;18.89;97749.13;5062319;28;20368;-79
2022/07/20 10:55:36;;;;;;;33.75;3.88;;;;;;;41.65;19.05;97750.63;5042928;28;20468;-79
2022/07/20 10:58:10;;;;;;;5.13;2.05;;;;;;;41.48;18.63;97736.09;5069252;28;20032;-79
2022/07/20 11:00:37;;;;;;;8.02;2.15;;;;;;;42.76;18.56;97739.75;5057535;28;20051;-79
2022/07/20 11:03:06;;;;;;;2.90;2.10;;;;;;;43.98;17.28;97737.13;5061833;28;20025;-79
2022/07/20 11:05:31;;;;;;;5.95;2.00;;;;;;;44.37;17.02;97726.34;5066176;28;20033;-79
2022/07/20 11:08:04;;;;;;;2.60;2.30;;;;;;;45.39;16.26;97733.81;5061948;28;20032;-79
2022/07/20 11:10:30;;;;;;;13.55;2.67;;;;;;;45.59;16.14;97728.56;5053497;28;20035;-79
2022/07/20 11:13:02;;;;;;;3.22;1.92;;;;;;;44.05;16.76;97715.88;5053571;28;20033;-78
2022/07/20 11:15:48;;;;;;;5.40;2.22;;;;;;;42.64;17.88;97717.63;5045073;28;20055;-81
2022/07/20 11:18:19;;;;;;;6.13;2.13;;;;;;;41.33;19.00;97707.22;5069723;28;20099;-80
2022/07/20 11:20:53;;;;;;;5.95;2.20;;;;;;;42.65;18.28;97719.28;5070149;28;20044;-80
2022/07/20 11:23:21;;;;;;;4.28;2.00;;;;;;;42.00;18.05;97704.59;5045064;28;20029;-81
2022/07/20 11:25:53;;;;;;;5.43;2.20;;;;;;;42.25;18.75;97697.09;5061666;28;20490;-79
2022/07/20 11:28:27;;;;;;;5.18;2.10;;;;;;;43.43;17.86;97699.28;5070260;28;20131;-80
2022/07/20 11:30:54;;;;;;;5.28;2.30;;;;;;;42.91;18.37;97688.88;5045687;28;20400;-79